createdAt,value
2019-04-10T00:01:59.366Z,92.45
2019-04-10T00:04:28.041Z,94.00
2019-04-10T00:07:10.501Z,94.63
2019-04-10T00:09:27.353Z,93.75
2019-04-10T00:11:55.244Z,94.33
2019-04-10T00:14:22.747Z,93.45
2019-04-10T00:16:50.178Z,91.22
2019-04-10T00:19:18.259Z,90.23
2019-04-10T00:21:45.941Z,88.79
2019-04-10T00:24:13.601Z,87.59
2019-04-10T00:26:41.695Z,87.01
2019-04-10T00:29:09.161Z,85.32
2019-04-10T00:31:36.572Z,84.08
2019-04-10T00:34:05.270Z,84.38
2019-04-10T00:36:33.166Z,83.46
2019-04-10T00:39:00.768Z,83.17
2019-04-10T00:41:28.253Z,82.69
2019-04-10T00:43:57.290Z,83.34
2019-04-10T00:46:25.041Z,83.42
2019-04-10T00:48:52.497Z,85.64
2019-04-10T00:51:19.987Z,87.13
2019-04-10T00:53:47.584Z,86.21
2019-04-10T00:56:15.173Z,84.00
2019-04-10T00:58:43.678Z,85.20
2019-04-10T01:01:11.815Z,84.54
2019-04-10T01:03:42.543Z,85.16
2019-04-10T01:06:10.204Z,81.87
2019-04-10T01:08:37.700Z,82.62
2019-04-10T01:11:05.177Z,83.79
2019-04-10T01:13:32.751Z,83.78
2019-04-10T01:16:00.733Z,84.22
2019-04-10T01:18:28.983Z,87.26
2019-04-10T01:20:56.556Z,87.19
2019-04-10T01:23:24.641Z,88.04
2019-04-10T01:25:52.232Z,82.85
2019-04-10T01:28:20.569Z,81.28
2019-04-10T01:30:48.656Z,85.09
2019-04-10T01:33:16.557Z,84.33
2019-04-10T01:35:44.608Z,85.71
2019-04-10T01:38:13.405Z,85.65
2019-04-10T01:40:41.372Z,83.55
2019-04-10T01:43:13.308Z,85.72
2019-04-10T01:45:38.372Z,86.70
2019-04-10T01:48:06.044Z,86.55
2019-04-10T01:50:34.670Z,86.11
2019-04-10T01:53:02.320Z,88.75
2019-04-10T01:55:32.468Z,90.84
2019-04-10T01:58:00.997Z,92.95
2019-04-10T02:00:29.818Z,94.26
2019-04-10T02:02:57.945Z,92.66
2019-04-10T02:05:25.518Z,91.47
2019-04-10T02:08:05.708Z,92.02
2019-04-10T02:10:22.335Z,91.53
2019-04-10T02:12:50.836Z,91.75
2019-04-10T02:15:19.612Z,92.61
2019-04-10T02:17:47.210Z,93.17
2019-04-10T02:20:14.906Z,94.50
2019-04-10T02:22:43.426Z,95.02
2019-04-10T02:25:11.612Z,94.27
2019-04-10T02:27:39.253Z,95.60
2019-04-10T02:30:10.330Z,94.37
2019-04-10T02:32:39.212Z,93.32
2019-04-10T02:35:10.593Z,91.24
2019-04-10T02:37:37.482Z,89.02
2019-04-10T02:40:08.895Z,86.44
2019-04-10T02:42:36.295Z,85.36
2019-04-10T02:45:05.973Z,86.01
2019-04-10T02:47:34.739Z,87.31
2019-04-10T02:50:03.636Z,87.91
2019-04-10T02:52:32.946Z,87.56
2019-04-10T02:55:02.020Z,87.53
2019-04-10T02:57:31.519Z,88.73
2019-04-10T03:00:00.854Z,90.55
2019-04-10T03:02:29.397Z,90.60
2019-04-10T03:04:59.375Z,90.88
2019-04-10T03:07:28.360Z,91.34
2019-04-10T03:10:08.779Z,92.09
2019-04-10T03:12:25.884Z,92.34
2019-04-10T03:14:54.894Z,93.31
2019-04-10T03:17:22.698Z,94.04
2019-04-10T03:19:50.170Z,94.79
2019-04-10T03:22:18.719Z,94.02
2019-04-10T03:24:46.495Z,91.50
2019-04-10T03:27:14.258Z,92.23
2019-04-10T03:29:42.243Z,91.53
2019-04-10T03:32:31.126Z,92.96
2019-04-10T03:35:00.867Z,93.37
2019-04-10T03:37:28.589Z,91.07
2019-04-10T03:39:57.289Z,91.11
2019-04-10T03:42:25.280Z,91.66
2019-04-10T03:44:52.863Z,91.96
2019-04-10T03:47:20.535Z,92.39
2019-04-10T03:49:47.929Z,92.52
2019-04-10T03:52:15.383Z,93.12
2019-04-10T03:54:43.913Z,93.15
2019-04-10T03:57:12.117Z,93.39
2019-04-10T03:59:40.723Z,93.67
2019-04-10T04:02:08.990Z,94.21
2019-04-10T04:04:37.461Z,94.75
2019-04-10T04:07:05.126Z,94.90
2019-04-10T04:09:32.598Z,94.41
2019-04-10T04:12:00.298Z,93.21
2019-04-10T04:14:28.469Z,91.64
2019-04-10T04:16:56.210Z,89.06
2019-04-10T04:19:24.136Z,88.34
2019-04-10T04:21:52.359Z,87.23
2019-04-10T04:24:25.022Z,86.47
2019-04-10T04:26:53.128Z,86.41
2019-04-10T04:29:20.652Z,86.25
2019-04-10T04:31:48.562Z,85.18
2019-04-10T04:34:16.920Z,84.49
2019-04-10T04:36:45.348Z,84.42
2019-04-10T04:39:21.706Z,83.37
2019-04-10T04:41:42.906Z,85.38
2019-04-10T04:44:10.535Z,85.03
2019-04-10T04:46:40.716Z,84.55
2019-04-10T04:49:09.525Z,84.29
2019-04-10T04:51:37.420Z,84.78
2019-04-10T04:54:05.191Z,85.27
2019-04-10T04:56:33.760Z,85.75
2019-04-10T04:59:01.529Z,86.18
2019-04-10T05:01:29.674Z,87.57
2019-04-10T05:03:58.061Z,87.68
2019-04-10T05:06:26.553Z,87.93
2019-04-10T05:08:54.823Z,88.10
2019-04-10T05:11:22.417Z,87.73
2019-04-10T05:13:50.987Z,87.47
2019-04-10T05:16:18.748Z,85.67
2019-04-10T05:18:46.209Z,84.91
2019-04-10T05:21:13.820Z,84.85
2019-04-10T05:23:41.286Z,83.90
2019-04-10T05:26:08.800Z,82.53
2019-04-10T05:28:36.311Z,82.04
2019-04-10T05:31:03.872Z,81.61
2019-04-10T05:33:31.298Z,80.89
2019-04-10T05:35:59.228Z,81.59
2019-04-10T05:38:27.052Z,80.70
2019-04-10T05:40:55.177Z,80.31
2019-04-10T05:43:22.751Z,81.06
2019-04-10T05:45:50.698Z,79.85
2019-04-10T05:48:20.983Z,79.62
2019-04-10T05:50:56.430Z,78.07
2019-04-10T05:53:18.359Z,78.57
2019-04-10T05:55:47.234Z,78.33
2019-04-10T05:58:15.472Z,78.04
2019-04-10T06:00:43.106Z,77.45
2019-04-10T06:03:10.700Z,77.65
2019-04-10T06:05:38.328Z,76.28
2019-04-10T06:08:05.845Z,76.43
2019-04-10T06:10:34.263Z,76.25
2019-04-10T06:13:02.655Z,75.82
2019-04-10T06:15:30.784Z,74.65
2019-04-10T06:17:58.787Z,73.78
2019-04-10T06:20:26.393Z,74.03
2019-04-10T06:22:54.899Z,75.19
2019-04-10T06:25:24.777Z,75.88
2019-04-10T06:27:52.684Z,75.96
2019-04-10T06:30:20.581Z,76.20
2019-04-10T06:32:48.448Z,76.57
2019-04-10T06:35:16.099Z,76.33
2019-04-10T06:37:43.598Z,77.79
2019-04-10T06:40:18.766Z,77.61
2019-04-10T06:42:48.600Z,78.67
2019-04-10T06:45:11.364Z,78.43
2019-04-10T06:47:38.995Z,77.93
2019-04-10T06:50:06.598Z,76.63
2019-04-10T06:52:34.559Z,76.04
2019-04-10T06:55:03.022Z,74.87
2019-04-10T06:57:30.607Z,74.35
2019-04-10T06:59:59.748Z,73.74
2019-04-10T07:02:30.847Z,72.85
2019-04-10T07:05:04.985Z,72.76
2019-04-10T07:07:40.673Z,72.10
2019-04-10T07:09:57.139Z,72.82
2019-04-10T07:12:29.780Z,72.80
2019-04-10T07:14:58.067Z,73.48
2019-04-10T07:17:25.004Z,75.07
2019-04-10T07:19:53.460Z,74.34
2019-04-10T07:22:20.985Z,76.11
2019-04-10T07:24:48.493Z,76.67
2019-04-10T07:27:16.185Z,78.45
2019-04-10T07:29:44.509Z,79.61
2019-04-10T07:32:13.339Z,83.18
2019-04-10T07:34:40.909Z,82.36
2019-04-10T07:37:10.713Z,80.68
2019-04-10T07:39:37.780Z,80.75
2019-04-10T07:42:06.210Z,80.69
2019-04-10T07:44:33.736Z,82.32
2019-04-10T07:47:01.308Z,81.16
2019-04-10T07:49:31.171Z,78.60
2019-04-10T07:51:58.666Z,78.50
2019-04-10T07:54:26.749Z,79.01
2019-04-10T07:56:54.509Z,77.87
2019-04-10T07:59:21.974Z,77.27
2019-04-10T08:01:49.527Z,77.13
2019-04-10T08:04:18.148Z,72.31
2019-04-10T08:06:46.888Z,73.23
2019-04-10T08:09:14.741Z,72.33
2019-04-10T08:11:42.558Z,71.35
2019-04-10T08:14:10.663Z,69.12
2019-04-10T08:16:39.395Z,68.66
2019-04-10T08:19:08.183Z,67.64
2019-04-10T08:21:35.922Z,66.29
2019-04-10T08:24:04.424Z,65.62
2019-04-10T08:26:32.522Z,64.75
2019-04-10T08:29:01.282Z,63.93
2019-04-10T08:31:29.104Z,61.92
2019-04-10T08:33:56.823Z,62.32
2019-04-10T08:36:25.506Z,60.94
2019-04-10T08:38:53.209Z,59.10
2019-04-10T08:41:21.302Z,59.56
2019-04-10T08:43:48.824Z,59.89
2019-04-10T08:46:17.451Z,59.90
2019-04-10T08:48:45.222Z,59.89
2019-04-10T08:51:12.822Z,60.49
2019-04-10T08:53:40.403Z,61.20
2019-04-10T08:56:07.998Z,60.78
2019-04-10T08:58:35.490Z,61.73
2019-04-10T09:01:03.109Z,61.34
2019-04-10T09:03:30.992Z,61.69
2019-04-10T09:05:58.801Z,62.50
2019-04-10T09:08:26.709Z,62.65
2019-04-10T09:10:54.568Z,61.31
2019-04-10T09:13:22.217Z,61.96
2019-04-10T09:15:49.996Z,61.20
2019-04-10T09:18:17.961Z,59.47
2019-04-10T09:20:46.811Z,59.12
2019-04-10T09:23:25.029Z,58.57
2019-04-10T09:25:43.853Z,58.54
2019-04-10T09:28:11.458Z,57.76
2019-04-10T09:30:39.166Z,56.11
2019-04-10T09:33:18.994Z,56.99
2019-04-10T09:35:36.367Z,58.96
2019-04-10T09:38:04.252Z,58.58
2019-04-10T09:40:32.106Z,56.69
2019-04-10T09:42:59.839Z,55.86
2019-04-10T09:45:28.431Z,57.30
2019-04-10T09:47:56.019Z,54.42
2019-04-10T09:50:24.743Z,54.29
2019-04-10T09:52:53.033Z,52.91
2019-04-10T09:55:20.487Z,53.60
2019-04-10T09:57:48.000Z,53.58
2019-04-10T10:00:15.862Z,52.90
2019-04-10T10:02:43.414Z,50.56
2019-04-10T10:05:11.178Z,49.80
2019-04-10T10:07:39.100Z,52.94
2019-04-10T10:10:08.861Z,54.57
2019-04-10T10:12:36.583Z,54.45
2019-04-10T10:15:05.202Z,53.38
2019-04-10T10:17:32.881Z,50.92
2019-04-10T10:20:01.701Z,49.48
2019-04-10T10:22:30.639Z,52.07
2019-04-10T10:24:59.366Z,51.79
2019-04-10T10:27:27.014Z,54.49
2019-04-10T10:29:55.964Z,50.91
2019-04-10T10:32:24.725Z,51.43
2019-04-10T10:34:52.505Z,52.01
2019-04-10T10:37:20.053Z,52.50
2019-04-10T10:39:47.703Z,51.84
2019-04-10T10:42:15.858Z,51.09
2019-04-10T10:44:43.418Z,49.64
2019-04-10T10:47:11.767Z,49.71
2019-04-10T10:49:40.220Z,49.34
2019-04-10T10:52:08.960Z,48.13
2019-04-10T10:54:36.968Z,48.68
2019-04-10T10:57:04.828Z,49.25
2019-04-10T10:59:33.435Z,48.19
2019-04-10T11:02:02.292Z,50.42
2019-04-10T11:04:29.842Z,48.69
2019-04-10T11:09:28.421Z,49.53
2019-04-10T11:11:56.030Z,49.42
2019-04-10T11:14:23.707Z,48.63
2019-04-10T11:16:51.664Z,48.33
2019-04-10T11:19:19.845Z,48.21
2019-04-10T11:21:47.477Z,48.14
2019-04-10T11:24:15.586Z,48.95
2019-04-10T11:26:44.007Z,50.94
2019-04-10T11:29:11.847Z,51.17
2019-04-10T11:31:39.688Z,51.51
2019-04-10T11:34:08.299Z,52.58
2019-04-10T11:36:36.900Z,53.11
2019-04-10T11:39:17.134Z,53.02
2019-04-10T11:41:37.434Z,52.98
2019-04-10T11:44:08.167Z,52.19
2019-04-10T11:46:38.687Z,51.97
2019-04-10T11:49:07.478Z,51.92
2019-04-10T11:51:36.744Z,52.23
2019-04-10T11:54:08.610Z,52.26
2019-04-10T11:56:35.689Z,52.64
2019-04-10T11:59:05.788Z,51.46
2019-04-10T12:01:34.769Z,50.96
2019-04-10T12:04:06.713Z,51.52
2019-04-10T12:06:33.942Z,51.73
2019-04-10T12:09:26.411Z,52.15
2019-04-10T12:11:32.907Z,50.89
2019-04-10T12:14:00.883Z,51.69
2019-04-10T12:16:29.400Z,52.43
2019-04-10T12:18:57.327Z,52.02
2019-04-10T12:21:26.169Z,51.96
2019-04-10T12:23:53.762Z,51.17
2019-04-10T12:26:21.299Z,50.91
2019-04-10T12:28:49.913Z,52.49
2019-04-10T12:31:17.726Z,52.95
2019-04-10T12:33:46.504Z,52.93
2019-04-10T12:36:14.421Z,53.96
2019-04-10T12:38:41.944Z,53.13
2019-04-10T12:41:09.477Z,53.49
2019-04-10T12:43:37.016Z,54.46
2019-04-10T12:46:04.780Z,54.38
2019-04-10T12:48:32.264Z,53.57
2019-04-10T12:50:59.856Z,53.86
2019-04-10T12:53:27.585Z,54.06
2019-04-10T12:55:55.028Z,54.55
2019-04-10T12:58:22.653Z,54.65
2019-04-10T13:00:50.586Z,55.14
2019-04-10T13:03:18.785Z,55.29
2019-04-10T13:05:47.382Z,55.18
2019-04-10T13:08:21.796Z,54.62
2019-04-10T13:10:45.569Z,54.20
2019-04-10T13:13:13.679Z,52.58
2019-04-10T13:15:41.430Z,54.66
2019-04-10T13:18:09.129Z,54.86
2019-04-10T13:20:37.641Z,55.00
2019-04-10T13:23:05.341Z,55.62
2019-04-10T13:25:34.405Z,55.27
2019-04-10T13:28:03.308Z,56.46
2019-04-10T13:30:44.085Z,56.87
2019-04-10T13:33:00.450Z,56.43
2019-04-10T13:35:28.429Z,56.95
2019-04-10T13:37:56.915Z,57.60
2019-04-10T13:40:24.411Z,58.11
2019-04-10T13:42:51.966Z,58.61
2019-04-10T13:45:19.469Z,58.12
2019-04-10T13:47:48.256Z,58.54
2019-04-10T13:50:16.806Z,58.56
2019-04-10T13:52:50.701Z,58.94
2019-04-10T13:55:17.355Z,58.76
2019-04-10T13:57:46.637Z,59.01
2019-04-10T14:00:28.449Z,59.00
2019-04-10T14:02:56.308Z,59.51
2019-04-10T14:05:24.669Z,59.57
2019-04-10T14:07:53.319Z,58.94
2019-04-10T14:10:21.040Z,58.85
2019-04-10T14:12:49.324Z,57.97
2019-04-10T14:15:18.082Z,58.14
2019-04-10T14:17:46.047Z,58.47
2019-04-10T14:20:15.893Z,60.09
2019-04-10T14:22:54.463Z,59.52
2019-04-10T14:25:40.263Z,59.58
2019-04-10T14:28:09.044Z,60.78
2019-04-10T14:30:39.750Z,61.72
2019-04-10T14:33:07.378Z,60.39
2019-04-10T14:35:35.596Z,59.66
2019-04-10T14:38:05.128Z,60.52
2019-04-10T14:40:33.741Z,61.33
2019-04-10T14:43:01.359Z,60.68
2019-04-10T14:45:29.720Z,59.73
2019-04-10T14:47:58.258Z,59.89
2019-04-10T14:50:26.186Z,59.45
2019-04-10T14:52:53.859Z,58.14
2019-04-10T14:55:21.999Z,58.69
2019-04-10T14:57:50.836Z,57.73
2019-04-10T15:00:37.413Z,58.21
2019-04-10T15:03:05.019Z,58.44
2019-04-10T15:05:43.299Z,56.15
2019-04-10T15:08:03.714Z,56.18
2019-04-10T15:10:31.329Z,55.60
2019-04-10T15:13:07.518Z,56.39
2019-04-10T15:15:28.364Z,56.91
2019-04-10T15:17:56.807Z,56.67
2019-04-10T15:20:25.068Z,56.89
2019-04-10T15:22:52.749Z,57.26
2019-04-10T15:25:20.238Z,57.35
2019-04-10T15:27:47.716Z,56.87
2019-04-10T15:30:18.106Z,57.26
2019-04-10T15:32:45.551Z,58.59
2019-04-10T15:35:13.145Z,58.61
2019-04-10T15:37:41.610Z,59.00
2019-04-10T15:40:18.142Z,60.05
2019-04-10T15:42:40.593Z,59.81
2019-04-10T15:45:18.320Z,58.79
2019-04-10T15:47:52.479Z,59.16
2019-04-10T15:50:16.047Z,59.09
2019-04-10T15:52:43.675Z,59.67
2019-04-10T15:55:13.346Z,60.60
2019-04-10T15:57:49.134Z,61.42
2019-04-10T16:00:12.671Z,61.70
2019-04-10T16:02:40.917Z,61.04
2019-04-10T16:05:09.094Z,61.98
2019-04-10T16:07:36.650Z,61.77
2019-04-10T16:10:25.358Z,61.36
2019-04-10T16:12:53.494Z,60.31
2019-04-10T16:15:21.575Z,60.23
2019-04-10T16:18:13.693Z,60.46
2019-04-10T16:20:41.475Z,60.43
2019-04-10T16:23:33.490Z,60.21
2019-04-10T16:26:01.075Z,60.33
2019-04-10T16:28:29.304Z,60.39
2019-04-10T16:30:57.374Z,59.89
2019-04-10T16:33:25.507Z,59.12
2019-04-10T16:35:53.177Z,59.62
2019-04-10T16:38:21.261Z,59.22
2019-04-10T16:40:49.124Z,58.38
2019-04-10T16:43:16.960Z,58.33
2019-04-10T16:45:44.782Z,58.47
2019-04-10T16:48:12.836Z,58.61
2019-04-10T16:50:40.919Z,58.67
2019-04-10T16:53:09.647Z,59.00
2019-04-10T16:55:37.669Z,59.30
2019-04-10T16:58:05.487Z,59.21
2019-04-10T17:00:32.978Z,59.80
2019-04-10T17:03:01.942Z,59.64
2019-04-10T17:05:30.629Z,59.84
2019-04-10T17:07:59.506Z,60.01
2019-04-10T17:10:29.221Z,61.08
2019-04-10T17:12:58.236Z,61.41
2019-04-10T17:15:26.117Z,61.61
2019-04-10T17:17:54.813Z,62.33
2019-04-10T17:20:24.473Z,62.38
2019-04-10T17:22:52.212Z,63.56
2019-04-10T17:25:20.141Z,64.26
2019-04-10T17:27:48.013Z,65.06
2019-04-10T17:30:16.172Z,66.28
2019-04-10T17:32:44.663Z,67.03
2019-04-10T17:35:13.679Z,68.17
2019-04-10T17:37:42.216Z,68.16
2019-04-10T17:40:25.043Z,68.51
2019-04-10T17:42:44.413Z,68.08
2019-04-10T17:45:12.491Z,66.65
2019-04-10T17:47:40.940Z,66.54
2019-04-10T17:50:12.032Z,68.91
2019-04-10T17:52:40.721Z,68.38
2019-04-10T17:55:09.390Z,67.82
2019-04-10T17:57:40.420Z,67.96
2019-04-10T18:00:16.910Z,69.67
2019-04-10T18:02:44.383Z,69.57
2019-04-10T18:05:12.667Z,68.89
2019-04-10T18:07:40.566Z,69.46
2019-04-10T18:10:08.628Z,69.23
2019-04-10T18:12:36.306Z,70.55
2019-04-10T18:15:04.236Z,70.75
2019-04-10T18:17:31.652Z,70.97
2019-04-10T18:19:59.121Z,71.04
2019-04-10T18:22:26.835Z,68.52
2019-04-10T18:24:54.341Z,69.29
2019-04-10T18:27:22.545Z,68.77
2019-04-10T18:29:50.176Z,68.82
2019-04-10T18:32:17.978Z,69.16
2019-04-10T18:34:46.478Z,70.17
2019-04-10T18:37:16.576Z,70.53
2019-04-10T18:39:43.466Z,71.09
2019-04-10T18:42:11.840Z,72.08
2019-04-10T18:44:39.611Z,72.86
2019-04-10T18:47:07.534Z,73.04
2019-04-10T18:49:35.753Z,73.33
2019-04-10T18:52:03.520Z,73.84
2019-04-10T18:54:31.919Z,74.53
2019-04-10T18:56:59.792Z,75.00
2019-04-10T18:59:51.125Z,74.73
2019-04-10T19:02:41.186Z,75.64
2019-04-10T19:05:16.632Z,76.52
2019-04-10T19:07:44.125Z,76.53
2019-04-10T19:10:12.890Z,75.17
2019-04-10T19:12:41.097Z,73.16
2019-04-10T19:15:09.096Z,72.45
2019-04-10T19:17:37.126Z,72.03
2019-04-10T19:20:07.701Z,72.04
2019-04-10T19:22:35.305Z,72.80
2019-04-10T19:25:03.206Z,73.91
2019-04-10T19:27:31.789Z,74.98
2019-04-10T19:29:59.527Z,75.91
2019-04-10T19:32:35.562Z,77.07
2019-04-10T19:35:04.649Z,77.68
2019-04-10T19:37:32.510Z,78.15
2019-04-10T19:40:00.162Z,77.47
2019-04-10T19:42:27.777Z,77.03
2019-04-10T19:44:55.309Z,76.59
2019-04-10T19:47:23.050Z,76.01
2019-04-10T19:49:50.903Z,76.06
2019-04-10T19:52:18.600Z,75.63
2019-04-10T19:54:47.159Z,76.19
2019-04-10T19:57:15.285Z,75.93
2019-04-10T19:59:44.070Z,76.12
2019-04-10T20:02:12.843Z,76.65
2019-04-10T20:04:40.935Z,76.22
2019-04-10T20:07:09.041Z,75.61
2019-04-10T20:09:36.825Z,74.81
2019-04-10T20:12:04.444Z,74.57
2019-04-10T20:14:32.596Z,74.26
2019-04-10T20:17:00.101Z,74.18
2019-04-10T20:19:28.696Z,73.32
2019-04-10T20:21:56.718Z,72.08
2019-04-10T20:24:25.038Z,71.32
2019-04-10T20:26:53.894Z,71.93
2019-04-10T20:29:21.571Z,72.44
2019-04-10T20:31:51.278Z,71.54
2019-04-10T20:34:19.197Z,72.02
2019-04-10T20:36:47.056Z,72.76
2019-04-10T20:39:14.944Z,72.98
2019-04-10T20:41:49.672Z,73.49
2019-04-10T20:44:12.825Z,74.76
2019-04-10T20:46:40.538Z,75.91
2019-04-10T20:49:08.578Z,77.38
2019-04-10T20:51:37.742Z,78.60
2019-04-10T20:54:06.547Z,80.13
2019-04-10T20:56:34.869Z,80.59
2019-04-10T20:59:03.485Z,80.71
2019-04-10T21:01:33.040Z,81.65
2019-04-10T21:04:00.902Z,83.12
2019-04-10T21:06:29.732Z,84.55
2019-04-10T21:08:58.717Z,85.16
2019-04-10T21:11:27.121Z,86.17
2019-04-10T21:13:54.972Z,88.08
2019-04-10T21:16:23.113Z,87.21
2019-04-10T21:18:51.637Z,88.05
2019-04-10T21:21:19.610Z,87.66
2019-04-10T21:23:48.701Z,87.37
2019-04-10T21:26:16.540Z,85.99
2019-04-10T21:28:44.322Z,85.40
2019-04-10T21:31:39.183Z,85.25
2019-04-10T21:34:16.193Z,85.04
2019-04-10T21:36:45.508Z,84.23
2019-04-10T21:39:13.941Z,84.01
2019-04-10T21:41:41.934Z,80.97
2019-04-10T21:44:11.356Z,80.38
2019-04-10T21:46:40.993Z,78.88
2019-04-10T21:49:08.575Z,78.01
2019-04-10T21:51:36.983Z,77.82
2019-04-10T21:54:04.685Z,78.02
2019-04-10T21:56:33.046Z,77.31
2019-04-10T21:59:01.132Z,77.33
2019-04-10T22:01:30.435Z,76.12
2019-04-10T22:03:58.477Z,76.22
2019-04-10T22:06:49.451Z,76.87
2019-04-10T22:09:43.227Z,77.16
2019-04-10T22:12:25.871Z,77.56
2019-04-10T22:14:48.152Z,77.60
2019-04-10T22:17:16.969Z,77.14
2019-04-10T22:19:45.222Z,76.90
2019-04-10T22:22:12.902Z,76.55
2019-04-10T22:24:40.596Z,76.06
2019-04-10T22:27:09.267Z,75.05
2019-04-10T22:29:36.943Z,75.94
2019-04-10T22:32:04.651Z,76.33
2019-04-10T22:34:32.117Z,77.03
2019-04-10T22:37:00.148Z,76.27
2019-04-10T22:39:27.741Z,76.81
2019-04-10T22:41:55.282Z,77.73
2019-04-10T22:44:33.820Z,79.06
2019-04-10T22:46:52.366Z,80.12
2019-04-10T22:49:20.249Z,79.45
2019-04-10T22:51:49.600Z,80.76
2019-04-10T22:54:17.904Z,79.32
2019-04-10T22:56:45.796Z,79.79
2019-04-10T22:59:13.742Z,81.77
2019-04-10T23:01:41.153Z,80.90
2019-04-10T23:04:08.624Z,80.38
2019-04-10T23:06:37.304Z,79.57
2019-04-10T23:09:08.421Z,79.20
2019-04-10T23:11:41.871Z,78.66
2019-04-10T23:14:06.722Z,78.19
2019-04-10T23:16:34.381Z,77.17
2019-04-10T23:19:02.127Z,75.97
2019-04-10T23:21:30.410Z,75.90
2019-04-10T23:23:59.031Z,76.20
2019-04-10T23:26:26.628Z,75.89
2019-04-10T23:28:54.091Z,76.56
2019-04-10T23:31:21.698Z,77.12
2019-04-10T23:33:50.265Z,77.05
2019-04-10T23:36:18.125Z,77.21
2019-04-10T23:38:45.943Z,77.32
2019-04-10T23:41:13.697Z,76.65
2019-04-10T23:43:41.942Z,77.01
2019-04-10T23:46:11.241Z,76.85
2019-04-10T23:48:39.154Z,77.54
2019-04-10T23:51:07.329Z,77.18
2019-04-10T23:53:34.834Z,77.24
2019-04-10T23:56:02.611Z,76.74
2019-04-10T23:58:30.248Z,77.43
